sensor_id;sensor_type;location;lat;lon;timestamp;temperature;humidity
49901;DHT22;35789;48.414;12.768;2023-01-01T00:00:00;3.1;99.9
49901;DHT22;35789;48.414;12.768;2023-01-01T00:05:00;3.1;99.9
49901;DHT22;35789;48.414;12.768;2023-01-01T00:10:00;3.1;99.9
49901;DHT22;35789;48.414;12.768;2023-01-01T00:15:00;3.1;99.9
49901;DHT22;35789;48.414;12.768;2023-01-01T00:20:00;3.1;99.9
49901;DHT22;35789;48.414;12.768;2023-01-01T00:25:00;3.0;99.9
49901;DHT22;35789;48.414;12.768;2023-01-01T00:30:00;3.0;99.9
49901;DHT22;35789;48.414;12.768;2023-01-01T00:35:00;3.0;99.9
49901;DHT22;35789;48.414;12.768;2023-01-01T00:40:00;2.9;99.9
49901;DHT22;35789;48.414;12.768;2023-01-01T00:45:00;2.9;99.9
49901;DHT22;35789;48.414;12.768;2023-01-01T00:50:00;2.9;99.9
49901;DHT22;35789;48.414;12.768;2023-01-01T00:55:00;2.9;99.9
49901;DHT22;35789;48.414;12.768;2023-01-01T01:00:00;2.8;99.9
49901;DHT22;35789;48.414;12.768;2023-01-01T01:05:00;2.8;99.9
49901;DHT22;35789;48.414;12.768;2023-01-01T01:10:00;2.8;99.9
49901;DHT22;35789;48.414;12.768;2023-01-01T01:15:00;2.8;99.9
49901;DHT22;35789;48.414;12.768;2023-01-01T01:20:00;2.8;99.9
49901;DHT22;35789;48.414;12.768;2023-01-01T01:25:00;2.8;99.9
49901;DHT22;35789;48.414;12.768;2023-01-01T01:30:00;2.7;99.9
49901;DHT22;35789;48.414;12.768;2023-01-01T01:35:00;2.7;99.9
49901;DHT22;35789;48.414;12.768;2023-01-01T01:40:00;2.6;99.9
49901;DHT22;35789;48.414;12.768;2023-01-01T01:45:00;2.6;99.9
49901;DHT22;35789;48.414;12.768;2023-01-01T01:50:02;2.6;99.9
49901;DHT22;35789;48.414;12.768;2023-01-01T01:55:00;2.6;99.9
49901;DHT22;35789;48.414;12.768;2023-01-01T02:00:01;2.5;99.9
49901;DHT22;35789;48.414;12.768;2023-01-01T02:05:00;2.5;99.9
49901;DHT22;35789;48.414;12.768;2023-01-01T02:10:00;2.5;99.9
49901;DHT22;35789;48.414;12.768;2023-01-01T02:15:00;2.5;99.9
49901;DHT22;35789;48.414;12.768;2023-01-01T02:25:03;2.4;99.9
49901;DHT22;35789;48.414;12.768;2023-01-01T02:30:01;2.4;99.9
49901;DHT22;35789;48.414;12.768;2023-01-01T02:35:01;2.3;99.9
49901;DHT22;35789;48.414;12.768;2023-01-01T02:40:00;2.3;99.9
49901;DHT22;35789;48.414;12.768;2023-01-01T02:45:00;2.3;99.9
49901;DHT22;35789;48.414;12.768;2023-01-01T02:50:02;2.2;99.9
49901;DHT22;35789;48.414;12.768;2023-01-01T02:55:00;2.2;99.9
49901;DHT22;35789;48.414;12.768;2023-01-01T03:00:01;2.3;99.9
49901;DHT22;35789;48.414;12.768;2023-01-01T03:05:02;2.2;99.9
49901;DHT22;35789;48.414;12.768;2023-01-01T03:10:01;2.2;99.9
49901;DHT22;35789;48.414;12.768;2023-01-01T03:15:01;2.2;99.9
49901;DHT22;35789;48.414;12.768;2023-01-01T03:20:02;2.1;99.9
49901;DHT22;35789;48.414;12.768;2023-01-01T03:25:02;2.0;99.9
49901;DHT22;35789;48.414;12.768;2023-01-01T03:30:00;2.0;99.9
49901;DHT22;35789;48.414;12.768;2023-01-01T03:35:00;2.0;99.9
49901;DHT22;35789;48.414;12.768;2023-01-01T03:40:00;2.0;99.9
49901;DHT22;35789;48.414;12.768;2023-01-01T03:45:00;2.0;99.9
49901;DHT22;35789;48.414;12.768;2023-01-01T03:50:00;2.0;99.9
49901;DHT22;35789;48.414;12.768;2023-01-01T03:55:01;2.0;99.9
49901;DHT22;35789;48.414;12.768;2023-01-01T04:00:02;1.9;99.9
49901;DHT22;35789;48.414;12.768;2023-01-01T04:05:00;1.8;99.9
49901;DHT22;35789;48.414;12.768;2023-01-01T04:10:03;1.8;99.9
49901;DHT22;35789;48.414;12.768;2023-01-01T04:15:00;1.7;99.9
49901;DHT22;35789;48.414;12.768;2023-01-01T04:20:00;1.8;99.9
49901;DHT22;35789;48.414;12.768;2023-01-01T04:25:00;1.8;99.9
49901;DHT22;35789;48.414;12.768;2023-01-01T04:30:00;1.8;99.9
49901;DHT22;35789;48.414;12.768;2023-01-01T04:35:00;1.8;99.9
49901;DHT22;35789;48.414;12.768;2023-01-01T04:40:00;1.7;99.9
49901;DHT22;35789;48.414;12.768;2023-01-01T04:45:00;1.8;99.9
49901;DHT22;35789;48.414;12.768;2023-01-01T04:50:00;1.7;99.9
49901;DHT22;35789;48.414;12.768;2023-01-01T04:55:00;1.7;99.9
49901;DHT22;35789;48.414;12.768;2023-01-01T05:00:00;1.7;99.9
49901;DHT22;35789;48.414;12.768;2023-01-01T05:05:00;1.7;99.9
49901;DHT22;35789;48.414;12.768;2023-01-01T05:10:00;1.6;99.9
49901;DHT22;35789;48.414;12.768;2023-01-01T05:15:00;1.5;99.9
49901;DHT22;35789;48.414;12.768;2023-01-01T05:20:00;1.6;99.9
49901;DHT22;35789;48.414;12.768;2023-01-01T05:25:00;1.6;99.9
49901;DHT22;35789;48.414;12.768;2023-01-01T05:30:00;1.8;99.9
49901;DHT22;35789;48.414;12.768;2023-01-01T05:35:00;1.7;99.9
49901;DHT22;35789;48.414;12.768;2023-01-01T05:40:00;1.6;99.9
49901;DHT22;35789;48.414;12.768;2023-01-01T05:45:00;1.6;99.9
49901;DHT22;35789;48.414;12.768;2023-01-01T05:50:00;1.6;99.9
49901;DHT22;35789;48.414;12.768;2023-01-01T05:55:00;1.6;99.9
49901;DHT22;35789;48.414;12.768;2023-01-01T06:00:00;1.5;99.9
49901;DHT22;35789;48.414;12.768;2023-01-01T06:05:00;1.7;99.9
49901;DHT22;35789;48.414;12.768;2023-01-01T06:10:00;1.7;99.9
49901;DHT22;35789;48.414;12.768;2023-01-01T06:15:00;1.6;99.9
49901;DHT22;35789;48.414;12.768;2023-01-01T06:20:00;1.6;99.9
49901;DHT22;35789;48.414;12.768;2023-01-01T06:25:00;1.6;99.9
49901;DHT22;35789;48.414;12.768;2023-01-01T06:30:00;1.7;99.9
49901;DHT22;35789;48.414;12.768;2023-01-01T06:35:00;1.8;99.9
49901;DHT22;35789;48.414;12.768;2023-01-01T06:40:00;1.9;99.9
49901;DHT22;35789;48.414;12.768;2023-01-01T06:45:00;1.9;99.9
49901;DHT22;35789;48.414;12.768;2023-01-01T06:50:00;1.8;99.9
49901;DHT22;35789;48.414;12.768;2023-01-01T06:55:00;1.8;99.9
49901;DHT22;35789;48.414;12.768;2023-01-01T07:00:00;1.9;99.9
49901;DHT22;35789;48.414;12.768;2023-01-01T07:05:00;2.0;99.9
49901;DHT22;35789;48.414;12.768;2023-01-01T07:10:00;2.0;99.9
49901;DHT22;35789;48.414;12.768;2023-01-01T07:15:00;2.0;99.9
49901;DHT22;35789;48.414;12.768;2023-01-01T07:20:00;1.9;99.9
49901;DHT22;35789;48.414;12.768;2023-01-01T07:25:00;1.9;99.9
49901;DHT22;35789;48.414;12.768;2023-01-01T07:30:00;1.8;99.9
49901;DHT22;35789;48.414;12.768;2023-01-01T07:35:00;1.8;99.9
49901;DHT22;35789;48.414;12.768;2023-01-01T07:40:00;1.9;99.9
49901;DHT22;35789;48.414;12.768;2023-01-01T07:45:00;1.9;99.9
49901;DHT22;35789;48.414;12.768;2023-01-01T07:50:00;1.8;99.9
49901;DHT22;35789;48.414;12.768;2023-01-01T07:55:00;1.8;99.9
49901;DHT22;35789;48.414;12.768;2023-01-01T08:00:00;1.8;99.9
49901;DHT22;35789;48.414;12.768;2023-01-01T08:05:00;1.8;99.9
49901;DHT22;35789;48.414;12.768;2023-01-01T08:10:00;1.8;99.9
49901;DHT22;35789;48.414;12.768;2023-01-01T08:15:00;2.0;99.9
49901;DHT22;35789;48.414;12.768;2023-01-01T08:20:00;2.0;99.9
49901;DHT22;35789;48.414;12.768;2023-01-01T08:25:00;2.1;99.9
49901;DHT22;35789;48.414;12.768;2023-01-01T08:30:00;2.2;99.9
49901;DHT22;35789;48.414;12.768;2023-01-01T08:35:00;2.3;99.9
49901;DHT22;35789;48.414;12.768;2023-01-01T08:40:00;2.4;99.9
49901;DHT22;35789;48.414;12.768;2023-01-01T08:45:00;2.5;99.9
49901;DHT22;35789;48.414;12.768;2023-01-01T08:50:00;2.6;99.9
49901;DHT22;35789;48.414;12.768;2023-01-01T08:55:00;2.7;99.9
49901;DHT22;35789;48.414;12.768;2023-01-01T09:00:00;3.0;99.9
49901;DHT22;35789;48.414;12.768;2023-01-01T09:05:00;3.2;99.9
49901;DHT22;35789;48.414;12.768;2023-01-01T09:10:00;3.4;99.9
49901;DHT22;35789;48.414;12.768;2023-01-01T09:15:00;3.5;99.9
49901;DHT22;35789;48.414;12.768;2023-01-01T09:20:00;3.7;99.9
49901;DHT22;35789;48.414;12.768;2023-01-01T09:25:00;3.7;99.9
49901;DHT22;35789;48.414;12.768;2023-01-01T09:30:00;3.9;99.9
49901;DHT22;35789;48.414;12.768;2023-01-01T09:35:00;4.0;99.9
49901;DHT22;35789;48.414;12.768;2023-01-01T09:40:00;4.1;99.9
49901;DHT22;35789;48.414;12.768;2023-01-01T09:45:03;4.3;99.9
49901;DHT22;35789;48.414;12.768;2023-01-01T09:50:00;4.4;99.9
49901;DHT22;35789;48.414;12.768;2023-01-01T09:55:01;4.6;99.9
49901;DHT22;35789;48.414;12.768;2023-01-01T10:00:00;4.7;99.9
49901;DHT22;35789;48.414;12.768;2023-01-01T10:05:02;4.8;99.9
49901;DHT22;35789;48.414;12.768;2023-01-01T10:10:03;5.0;99.9
49901;DHT22;35789;48.414;12.768;2023-01-01T10:15:01;5.1;99.9
49901;DHT22;35789;48.414;12.768;2023-01-01T10:20:00;5.2;99.9
49901;DHT22;35789;48.414;12.768;2023-01-01T10:25:00;5.4;99.9
49901;DHT22;35789;48.414;12.768;2023-01-01T10:30:01;5.5;99.9
49901;DHT22;35789;48.414;12.768;2023-01-01T10:35:01;5.7;99.9
49901;DHT22;35789;48.414;12.768;2023-01-01T10:40:00;5.9;99.9
49901;DHT22;35789;48.414;12.768;2023-01-01T10:45:00;6.1;99.9
49901;DHT22;35789;48.414;12.768;2023-01-01T10:50:01;6.2;99.9
49901;DHT22;35789;48.414;12.768;2023-01-01T10:55:00;6.3;99.9
49901;DHT22;35789;48.414;12.768;2023-01-01T11:00:08;6.4;99.9
49901;DHT22;35789;48.414;12.768;2023-01-01T11:10:00;6.7;99.9
49901;DHT22;35789;48.414;12.768;2023-01-01T11:15:00;6.9;99.9
49901;DHT22;35789;48.414;12.768;2023-01-01T11:20:00;7.1;99.9
49901;DHT22;35789;48.414;12.768;2023-01-01T11:25:01;7.1;99.9
49901;DHT22;35789;48.414;12.768;2023-01-01T11:35:00;7.3;99.9
49901;DHT22;35789;48.414;12.768;2023-01-01T11:40:00;7.5;99.9
49901;DHT22;35789;48.414;12.768;2023-01-01T11:45:00;7.7;99.9
49901;DHT22;35789;48.414;12.768;2023-01-01T11:50:01;7.8;99.9
49901;DHT22;35789;48.414;12.768;2023-01-01T11:55:01;7.8;99.9
49901;DHT22;35789;48.414;12.768;2023-01-01T12:00:00;7.8;99.9
49901;DHT22;35789;48.414;12.768;2023-01-01T12:05:02;7.8;99.9
49901;DHT22;35789;48.414;12.768;2023-01-01T12:10:01;7.9;99.9
49901;DHT22;35789;48.414;12.768;2023-01-01T12:15:00;8.2;99.9
49901;DHT22;35789;48.414;12.768;2023-01-01T12:20:01;8.3;99.9
49901;DHT22;35789;48.414;12.768;2023-01-01T12:25:00;8.5;99.9
49901;DHT22;35789;48.414;12.768;2023-01-01T12:30:03;8.5;99.9
49901;DHT22;35789;48.414;12.768;2023-01-01T12:35:02;8.5;99.9
49901;DHT22;35789;48.414;12.768;2023-01-01T12:40:07;8.6;99.9
49901;DHT22;35789;48.414;12.768;2023-01-01T12:45:06;8.6;99.9
49901;DHT22;35789;48.414;12.768;2023-01-01T12:50:03;8.7;99.9
49901;DHT22;35789;48.414;12.768;2023-01-01T12:55:06;8.7;99.9
49901;DHT22;35789;48.414;12.768;2023-01-01T13:00:01;8.9;99.9
49901;DHT22;35789;48.414;12.768;2023-01-01T13:05:02;8.8;99.9
49901;DHT22;35789;48.414;12.768;2023-01-01T13:10:03;8.9;99.9
49901;DHT22;35789;48.414;12.768;2023-01-01T13:15:00;9.0;99.9
49901;DHT22;35789;48.414;12.768;2023-01-01T13:20:14;9.1;99.9
49901;DHT22;35789;48.414;12.768;2023-01-01T13:25:02;9.1;99.9
49901;DHT22;35789;48.414;12.768;2023-01-01T13:30:00;9.2;99.9
49901;DHT22;35789;48.414;12.768;2023-01-01T13:35:00;9.1;99.9
49901;DHT22;35789;48.414;12.768;2023-01-01T13:40:00;9.0;99.9
49901;DHT22;35789;48.414;12.768;2023-01-01T13:45:00;8.9;99.9
49901;DHT22;35789;48.414;12.768;2023-01-01T13:50:02;8.8;99.9
49901;DHT22;35789;48.414;12.768;2023-01-01T13:55:04;8.7;99.9
49901;DHT22;35789;48.414;12.768;2023-01-01T14:00:03;8.6;99.9
49901;DHT22;35789;48.414;12.768;2023-01-01T14:05:01;8.6;99.9
49901;DHT22;35789;48.414;12.768;2023-01-01T14:15:07;8.3;99.9
49901;DHT22;35789;48.414;12.768;2023-01-01T14:20:03;8.2;99.9
49901;DHT22;35789;48.414;12.768;2023-01-01T14:25:00;8.0;99.9
49901;DHT22;35789;48.414;12.768;2023-01-01T14:30:00;8.0;99.9
49901;DHT22;35789;48.414;12.768;2023-01-01T14:35:00;7.8;99.9
49901;DHT22;35789;48.414;12.768;2023-01-01T14:40:04;7.7;99.9
49901;DHT22;35789;48.414;12.768;2023-01-01T14:45:00;7.6;99.9
49901;DHT22;35789;48.414;12.768;2023-01-01T14:50:01;7.5;99.9
49901;DHT22;35789;48.414;12.768;2023-01-01T14:55:00;7.4;99.9
49901;DHT22;35789;48.414;12.768;2023-01-01T15:00:01;7.3;99.9
49901;DHT22;35789;48.414;12.768;2023-01-01T15:05:14;7.3;99.9
49901;DHT22;35789;48.414;12.768;2023-01-01T15:10:00;7.2;99.9
49901;DHT22;35789;48.414;12.768;2023-01-01T15:15:00;7.2;99.9
49901;DHT22;35789;48.414;12.768;2023-01-01T15:20:00;7.1;99.9
49901;DHT22;35789;48.414;12.768;2023-01-01T15:25:00;7.0;99.9
49901;DHT22;35789;48.414;12.768;2023-01-01T15:30:00;6.9;99.9
49901;DHT22;35789;48.414;12.768;2023-01-01T15:35:00;6.9;99.9
49901;DHT22;35789;48.414;12.768;2023-01-01T15:40:31;6.8;99.9
49901;DHT22;35789;48.414;12.768;2023-01-01T15:50:08;6.6;99.9
49901;DHT22;35789;48.414;12.768;2023-01-01T15:55:00;6.5;99.9
49901;DHT22;35789;48.414;12.768;2023-01-01T16:00:00;6.5;99.9
49901;DHT22;35789;48.414;12.768;2023-01-01T16:05:00;6.4;99.9
49901;DHT22;35789;48.414;12.768;2023-01-01T16:10:00;6.3;99.9
49901;DHT22;35789;48.414;12.768;2023-01-01T16:15:00;6.2;99.9
49901;DHT22;35789;48.414;12.768;2023-01-01T16:20:00;6.2;99.9
49901;DHT22;35789;48.414;12.768;2023-01-01T16:25:01;6.1;99.9
49901;DHT22;35789;48.414;12.768;2023-01-01T16:30:00;6.0;99.9
49901;DHT22;35789;48.414;12.768;2023-01-01T16:35:00;5.9;99.9
49901;DHT22;35789;48.414;12.768;2023-01-01T16:40:00;5.9;99.9
49901;DHT22;35789;48.414;12.768;2023-01-01T16:45:00;5.8;99.9
49901;DHT22;35789;48.414;12.768;2023-01-01T16:50:00;5.7;99.9
49901;DHT22;35789;48.414;12.768;2023-01-01T16:55:00;5.7;99.9
49901;DHT22;35789;48.414;12.768;2023-01-01T17:00:00;5.6;99.9
49901;DHT22;35789;48.414;12.768;2023-01-01T17:05:00;5.5;99.9
49901;DHT22;35789;48.414;12.768;2023-01-01T17:10:00;5.5;99.9
49901;DHT22;35789;48.414;12.768;2023-01-01T17:15:00;5.3;99.9
49901;DHT22;35789;48.414;12.768;2023-01-01T17:20:00;5.2;99.9
49901;DHT22;35789;48.414;12.768;2023-01-01T17:25:00;5.1;99.9
49901;DHT22;35789;48.414;12.768;2023-01-01T17:30:00;5.1;99.9
49901;DHT22;35789;48.414;12.768;2023-01-01T17:35:00;5.1;99.9
49901;DHT22;35789;48.414;12.768;2023-01-01T17:40:00;5.1;99.9
49901;DHT22;35789;48.414;12.768;2023-01-01T17:45:00;5.0;99.9
49901;DHT22;35789;48.414;12.768;2023-01-01T17:50:00;5.0;99.9
49901;DHT22;35789;48.414;12.768;2023-01-01T17:55:00;4.9;99.9
49901;DHT22;35789;48.414;12.768;2023-01-01T18:00:00;4.8;99.9
49901;DHT22;35789;48.414;12.768;2023-01-01T18:05:00;4.7;99.9
49901;DHT22;35789;48.414;12.768;2023-01-01T18:10:00;4.6;99.9
49901;DHT22;35789;48.414;12.768;2023-01-01T18:15:00;4.5;99.9
49901;DHT22;35789;48.414;12.768;2023-01-01T18:20:00;4.4;99.9
49901;DHT22;35789;48.414;12.768;2023-01-01T18:25:00;4.3;99.9
49901;DHT22;35789;48.414;12.768;2023-01-01T18:30:00;4.2;99.9
49901;DHT22;35789;48.414;12.768;2023-01-01T18:35:00;4.1;99.9
49901;DHT22;35789;48.414;12.768;2023-01-01T18:40:00;4.0;99.9
49901;DHT22;35789;48.414;12.768;2023-01-01T18:45:00;4.0;99.9
49901;DHT22;35789;48.414;12.768;2023-01-01T18:50:03;3.9;99.9
49901;DHT22;35789;48.414;12.768;2023-01-01T18:55:02;3.9;99.9
49901;DHT22;35789;48.414;12.768;2023-01-01T19:00:04;3.8;99.9
49901;DHT22;35789;48.414;12.768;2023-01-01T19:05:05;3.7;99.9
49901;DHT22;35789;48.414;12.768;2023-01-01T19:10:00;3.5;99.9
49901;DHT22;35789;48.414;12.768;2023-01-01T19:15:00;3.6;99.9
49901;DHT22;35789;48.414;12.768;2023-01-01T19:20:00;3.6;99.9
49901;DHT22;35789;48.414;12.768;2023-01-01T19:25:00;3.6;99.9
49901;DHT22;35789;48.414;12.768;2023-01-01T19:30:00;3.5;99.9
49901;DHT22;35789;48.414;12.768;2023-01-01T19:35:00;3.4;99.9
49901;DHT22;35789;48.414;12.768;2023-01-01T19:40:00;3.4;99.9
49901;DHT22;35789;48.414;12.768;2023-01-01T19:45:00;3.5;99.9
49901;DHT22;35789;48.414;12.768;2023-01-01T19:50:00;3.4;99.9
49901;DHT22;35789;48.414;12.768;2023-01-01T19:55:00;3.4;99.9
49901;DHT22;35789;48.414;12.768;2023-01-01T20:00:00;3.4;99.9
49901;DHT22;35789;48.414;12.768;2023-01-01T20:05:00;3.3;99.9
49901;DHT22;35789;48.414;12.768;2023-01-01T20:10:00;3.4;99.9
49901;DHT22;35789;48.414;12.768;2023-01-01T20:15:00;3.3;99.9
49901;DHT22;35789;48.414;12.768;2023-01-01T20:20:00;3.3;99.9
49901;DHT22;35789;48.414;12.768;2023-01-01T20:25:00;3.2;99.9
49901;DHT22;35789;48.414;12.768;2023-01-01T20:30:00;3.1;99.9
49901;DHT22;35789;48.414;12.768;2023-01-01T20:35:00;3.0;99.9
49901;DHT22;35789;48.414;12.768;2023-01-01T20:40:00;3.0;99.9
49901;DHT22;35789;48.414;12.768;2023-01-01T20:45:00;2.9;99.9
49901;DHT22;35789;48.414;12.768;2023-01-01T20:50:00;3.0;99.9
49901;DHT22;35789;48.414;12.768;2023-01-01T20:55:00;3.1;99.9
49901;DHT22;35789;48.414;12.768;2023-01-01T21:00:00;3.1;99.9
49901;DHT22;35789;48.414;12.768;2023-01-01T21:05:00;3.1;99.9
49901;DHT22;35789;48.414;12.768;2023-01-01T21:10:00;3.1;99.9
49901;DHT22;35789;48.414;12.768;2023-01-01T21:15:00;3.1;99.9
49901;DHT22;35789;48.414;12.768;2023-01-01T21:20:00;3.1;99.9
49901;DHT22;35789;48.414;12.768;2023-01-01T21:25:00;3.1;99.9
49901;DHT22;35789;48.414;12.768;2023-01-01T21:30:00;3.1;99.9
49901;DHT22;35789;48.414;12.768;2023-01-01T21:35:00;3.1;99.9
49901;DHT22;35789;48.414;12.768;2023-01-01T21:40:03;3.1;99.9
49901;DHT22;35789;48.414;12.768;2023-01-01T21:45:00;3.1;99.9
49901;DHT22;35789;48.414;12.768;2023-01-01T21:50:00;3.1;99.9
49901;DHT22;35789;48.414;12.768;2023-01-01T21:55:00;3.1;99.9
49901;DHT22;35789;48.414;12.768;2023-01-01T22:00:00;3.0;99.9
49901;DHT22;35789;48.414;12.768;2023-01-01T22:05:01;2.9;99.9
49901;DHT22;35789;48.414;12.768;2023-01-01T22:15:18;3.0;99.9
49901;DHT22;35789;48.414;12.768;2023-01-01T22:20:00;3.3;99.9
49901;DHT22;35789;48.414;12.768;2023-01-01T22:25:01;3.2;99.9
49901;DHT22;35789;48.414;12.768;2023-01-01T22:30:04;3.3;99.9
49901;DHT22;35789;48.414;12.768;2023-01-01T22:35:02;3.4;99.9
49901;DHT22;35789;48.414;12.768;2023-01-01T22:40:00;3.3;99.9
49901;DHT22;35789;48.414;12.768;2023-01-01T22:45:00;3.1;99.9
49901;DHT22;35789;48.414;12.768;2023-01-01T22:50:00;3.0;99.9
49901;DHT22;35789;48.414;12.768;2023-01-01T22:55:00;3.0;99.9
49901;DHT22;35789;48.414;12.768;2023-01-01T23:00:00;2.9;99.9
49901;DHT22;35789;48.414;12.768;2023-01-01T23:10:00;2.8;99.9
49901;DHT22;35789;48.414;12.768;2023-01-01T23:15:00;2.7;99.9
49901;DHT22;35789;48.414;12.768;2023-01-01T23:20:00;2.7;99.9
49901;DHT22;35789;48.414;12.768;2023-01-01T23:25:00;2.7;99.9
49901;DHT22;35789;48.414;12.768;2023-01-01T23:30:00;2.5;99.9
49901;DHT22;35789;48.414;12.768;2023-01-01T23:35:00;2.4;99.9
49901;DHT22;35789;48.414;12.768;2023-01-01T23:40:00;2.5;99.9
49901;DHT22;35789;48.414;12.768;2023-01-01T23:45:00;2.5;99.9
49901;DHT22;35789;48.414;12.768;2023-01-01T23:50:00;2.3;99.9
49901;DHT22;35789;48.414;12.768;2023-01-01T23:55:00;2.4;99.9
